Nora, Nebraska
Current Conditions -  °F | °C
As of 8:15 PM on Saturday 25 Oct 2014 (Local Time) from KHJH Reporting Station
Clear Clear  
Wind Chill: 18°   Ceiling: Unl
Heat Index: 18°   Visibility: 10mi
Dew Point:   Wind: 3mph
Humidity: 56%   Direction: 90°E
Pressure: 29.99"   Gusts: NA
Location:  40.2199°N, 98.0479°W
Report Text: KHJH 260115Z AUTO 09003KT 10SM CLR 18/09 A2999 RMK AO2 T01760087
Loading
Personal Weather Stations






























Interactive Weather Map
Tropical Storm Tracking
New forecast layout! Learn more

10-Day Weather Forecast

Advertisements
Track Severe Weather on mobile